Time;durP1;ratioP1;P1;durP2;ratioP2;P2;SDS_P1;SDS_P2;PMS_P1;PMS_P2;Temp;Humidity;BMP_temperature;BMP_pressure;BME280_temperature;BME280_humidity;BME280_pressure;Samples;Min_cycle;Max_cycle;Signal;HPM_P1;HPM_P2
2021/11/17 02:28:00;;;;;;;23.30;10.48;;;;;;;3.91;100.00;101766.31;10136890;28;20039;-68
2021/11/17 02:33:16;;;;;;;25.67;11.07;;;;;;;3.86;100.00;101764.34;10170485;28;20061;-67
2021/11/17 02:38:27;;;;;;;20.50;9.02;;;;;;;3.94;100.00;101752.28;10160255;28;20392;-67
2021/11/17 02:43:44;;;;;;;21.77;9.90;;;;;;;3.97;100.00;101754.50;10157875;28;20054;-67
2021/11/17 02:48:53;;;;;;;23.67;10.75;;;;;;;4.04;100.00;101748.88;10157847;28;20085;-67
2021/11/17 02:54:12;;;;;;;20.23;8.38;;;;;;;4.09;100.00;101735.47;10161651;28;20074;-68
2021/11/17 02:59:23;;;;;;;18.33;7.10;;;;;;;4.17;100.00;101733.13;10147720;28;20046;-67
2021/11/17 03:04:29;;;;;;;15.82;7.45;;;;;;;3.99;100.00;101728.84;10153954;28;20077;-68
2021/11/17 03:09:44;;;;;;;17.02;8.02;;;;;;;4.02;100.00;101726.69;10153342;28;20043;-67
2021/11/17 03:14:46;;;;;;;18.75;8.05;;;;;;;4.00;100.00;101711.50;10139101;28;20085;-68
2021/11/17 03:20:08;;;;;;;17.50;8.20;;;;;;;3.90;100.00;101711.38;10159979;28;20093;-68
2021/11/17 03:25:23;;;;;;;18.58;7.95;;;;;;;3.98;100.00;101712.84;10148364;28;20424;-68
2021/11/17 03:30:33;;;;;;;19.25;8.27;;;;;;;3.93;100.00;101707.34;10168789;28;20038;-68
2021/11/17 03:35:37;;;;;;;16.95;7.60;;;;;;;4.00;100.00;101708.00;10149357;28;20433;-68
2021/11/17 03:41:01;;;;;;;18.50;8.82;;;;;;;3.91;100.00;101707.59;10163450;28;20442;-68
2021/11/17 03:46:03;;;;;;;17.80;7.60;;;;;;;4.03;100.00;101703.97;10159347;28;20508;-68
2021/11/17 03:51:37;;;;;;;15.90;7.88;;;;;;;3.94;100.00;101700.84;10161049;28;20074;-68
2021/11/17 03:56:33;;;;;;;21.23;8.75;;;;;;;4.05;100.00;101708.06;10156506;28;20049;-68
2021/11/17 04:01:36;;;;;;;17.33;7.50;;;;;;;4.07;100.00;101705.13;10155593;28;20549;-68
2021/11/17 04:06:58;;;;;;;15.77;7.75;;;;;;;4.14;100.00;101705.75;10156968;28;20039;-68
2021/11/17 04:12:03;;;;;;;18.48;7.80;;;;;;;4.19;100.00;101703.09;10170991;28;20528;-68
2021/11/17 04:17:14;;;;;;;21.73;9.20;;;;;;;4.22;100.00;101702.59;10154811;28;20070;-68
2021/11/17 04:22:23;;;;;;;19.35;8.30;;;;;;;4.15;100.00;101707.38;10166067;28;20082;-68
2021/11/17 04:27:47;;;;;;;17.05;7.72;;;;;;;4.11;100.00;101695.44;10153101;28;20145;-67
2021/11/17 04:32:53;;;;;;;;;;;;;;;3.96;100.00;101699.53;10157500;28;20422;-68
2021/11/17 04:38:10;;;;;;;17.58;8.77;;;;;;;4.11;100.00;101693.53;10171180;28;19921;-68
2021/11/17 04:43:26;;;;;;;28.73;8.48;;;;;;;4.11;100.00;101684.59;10155220;28;20041;-68
2021/11/17 04:49:22;;;;;;;22.67;10.50;;;;;;;4.12;100.00;101681.63;10160532;28;20078;-68
2021/11/17 04:54:36;;;;;;;22.48;8.93;;;;;;;4.05;100.00;101691.00;10048902;29;20100;-67
2021/11/17 04:59:53;;;;;;;19.90;9.75;;;;;;;4.22;100.00;101681.78;10156042;28;20052;-68
2021/11/17 05:05:18;;;;;;;19.70;9.05;;;;;;;4.24;100.00;101684.22;10143152;28;20042;-68
2021/11/17 05:10:47;;;;;;;18.63;8.45;;;;;;;4.22;100.00;101680.94;10160926;28;20057;-68
2021/11/17 05:15:50;;;;;;;22.25;9.90;;;;;;;4.32;100.00;101680.25;10150420;28;20082;-68
2021/11/17 05:20:52;;;;;;;19.10;9.48;;;;;;;4.29;100.00;101675.34;10180855;28;20043;-68
2021/11/17 05:26:04;;;;;;;17.13;9.10;;;;;;;4.29;100.00;101681.56;10148046;28;20098;-68
2021/11/17 05:31:40;;;;;;;21.27;10.93;;;;;;;4.32;100.00;101681.06;10137720;28;20088;-68
2021/11/17 05:37:00;;;;;;;19.70;9.23;;;;;;;4.32;100.00;101670.25;10151526;28;20057;-67
2021/11/17 05:41:59;;;;;;;24.05;11.15;;;;;;;4.28;100.00;101682.66;10149028;28;20124;-68
2021/11/17 05:46:56;;;;;;;21.23;10.48;;;;;;;4.29;100.00;101681.56;10144995;28;20084;-68
2021/11/17 05:52:10;;;;;;;25.90;11.10;;;;;;;4.30;100.00;101672.38;10162787;28;20385;-68
2021/11/17 05:57:22;;;;;;;24.67;11.68;;;;;;;4.30;100.00;101672.38;10164614;28;20443;-69
2021/11/17 06:02:40;;;;;;;24.95;10.63;;;;;;;4.33;100.00;101674.56;10155595;28;20070;-68
2021/11/17 06:07:36;;;;;;;26.27;11.77;;;;;;;4.24;100.00;101689.63;10152873;28;20141;-67
2021/11/17 06:12:34;;;;;;;23.83;12.68;;;;;;;4.22;100.00;101680.94;10158984;28;20078;-67
2021/11/17 06:17:30;;;;;;;33.60;15.40;;;;;;;4.21;100.00;101679.31;10144994;28;20134;-68
2021/11/17 06:22:31;;;;;;;33.83;15.88;;;;;;;4.22;100.00;101680.94;10155634;28;20078;-68
2021/11/17 06:27:32;;;;;;;29.20;14.88;;;;;;;4.29;100.00;101675.34;10151304;28;21089;-67
2021/11/17 06:32:29;;;;;;;33.63;16.75;;;;;;;4.34;100.00;101665.41;10158515;28;20046;-68
2021/11/17 06:37:28;;;;;;;27.33;13.88;;;;;;;4.48;100.00;101662.28;10153787;28;20089;-68
2021/11/17 06:42:35;;;;;;;30.27;14.32;;;;;;;4.52;100.00;101644.47;10161897;28;20072;-68
2021/11/17 06:47:31;;;;;;;36.45;16.33;;;;;;;4.57;100.00;101649.94;10152024;28;20038;-68
2021/11/17 06:52:27;;;;;;;36.17;16.83;;;;;;;4.56;100.00;101653.72;10161116;28;20721;-68
2021/11/17 06:57:24;;;;;;;33.88;17.20;;;;;;;4.67;100.00;101622.16;10156362;28;20447;-68
2021/11/17 07:02:21;;;;;;;30.23;15.15;;;;;;;4.66;100.00;101626.72;10155289;28;20039;-68
2021/11/17 07:07:17;;;;;;;34.10;17.45;;;;;;;4.69;100.00;101647.91;10158459;28;20065;-67
2021/11/17 07:12:14;;;;;;;34.20;16.75;;;;;;;4.71;100.00;101626.81;10150392;28;20046;-68
2021/11/17 07:17:11;;;;;;;32.47;16.65;;;;;;;4.74;100.00;101629.00;10150284;28;20046;-68
2021/11/17 07:22:09;;;;;;;31.45;15.93;;;;;;;4.75;100.00;101644.16;10157926;28;20479;-69
2021/11/17 07:27:11;;;;;;;34.90;17.38;;;;;;;4.71;100.00;101656.59;10147754;28;20137;-67
2021/11/17 07:32:08;;;;;;;31.95;15.88;;;;;;;4.73;100.00;101659.84;10140801;28;20046;-68
2021/11/17 07:37:05;;;;;;;36.38;17.67;;;;;;;4.64;100.00;101655.97;10143266;28;20038;-68
2021/11/17 07:42:01;;;;;;;36.10;17.08;;;;;;;4.76;100.00;101647.72;10146170;28;20042;-68
2021/11/17 07:46:58;;;;;;;34.03;16.90;;;;;;;4.84;100.00;101650.75;10155062;28;20089;-68
2021/11/17 07:51:56;;;;;;;32.85;15.55;;;;;;;4.85;100.00;101644.28;10149204;28;20074;-68
2021/11/17 07:56:53;;;;;;;31.20;15.10;;;;;;;4.91;100.00;101641.59;10158345;28;20042;-68
2021/11/17 08:01:52;;;;;;;28.85;14.45;;;;;;;4.88;100.00;101651.06;10166240;28;20084;-68
2021/11/17 08:06:51;;;;;;;34.88;16.27;;;;;;;4.85;100.00;101646.97;10167756;28;20042;-68
2021/11/17 08:11:48;;;;;;;36.65;15.32;;;;;;;4.88;100.00;101644.84;10160515;28;20050;-69
2021/11/17 08:16:45;;;;;;;30.95;14.38;;;;;;;4.90;100.00;101615.56;10148993;28;20410;-69
2021/11/17 08:21:42;;;;;;;29.00;14.75;;;;;;;4.94;100.00;101627.53;10161478;28;20054;-68
2021/11/17 08:26:38;;;;;;;33.97;14.80;;;;;;;4.97;100.00;101632.47;10151006;28;20103;-68
2021/11/17 08:31:37;;;;;;;34.00;15.15;;;;;;;4.95;100.00;101634.59;10152630;28;20378;-68
2021/11/17 08:36:34;;;;;;;30.20;15.15;;;;;;;4.97;100.00;101643.28;10157037;28;20064;-68
2021/11/17 08:41:30;;;;;;;34.33;15.57;;;;;;;5.02;100.00;101640.63;10166128;28;20062;-68
2021/11/17 08:46:27;;;;;;;33.35;15.15;;;;;;;5.10;100.00;101632.00;10155983;28;20034;-67
2021/11/17 08:51:30;;;;;;;33.20;16.08;;;;;;;4.97;100.00;101616.19;10164277;28;20407;-68
2021/11/17 08:56:28;;;;;;;37.22;16.08;;;;;;;5.15;100.00;101607.66;10159375;28;20523;-68
2021/11/17 09:01:26;;;;;;;29.52;14.25;;;;;;;5.21;100.00;101622.88;10166790;28;20100;-69
2021/11/17 09:06:23;;;;;;;32.60;15.90;;;;;;;5.25;100.00;101618.59;10160500;28;20046;-68
2021/11/17 09:11:22;;;;;;;38.20;15.80;;;;;;;5.26;100.00;101620.19;10153076;28;20054;-68
2021/11/17 09:16:21;;;;;;;35.45;15.57;;;;;;;5.28;100.00;101612.63;10145416;28;20092;-68
2021/11/17 09:21:18;;;;;;;33.70;15.18;;;;;;;5.30;100.00;101609.66;10146216;28;20042;-68
2021/11/17 09:26:17;;;;;;;33.95;16.35;;;;;;;5.24;100.00;101611.53;10148073;28;20489;-68
2021/11/17 09:31:14;;;;;;;33.83;15.30;;;;;;;5.18;100.00;101601.72;10151629;28;20093;-68
2021/11/17 09:36:11;;;;;;;33.88;15.20;;;;;;;5.28;100.00;101606.41;10156802;28;20063;-68
2021/11/17 09:41:11;;;;;;;32.25;15.00;;;;;;;5.34;100.00;101597.22;10161842;28;20073;-68
2021/11/17 09:46:13;;;;;;;31.98;15.35;;;;;;;5.40;100.00;101582.59;10162557;28;20094;-68
2021/11/17 09:51:15;;;;;;;34.43;14.63;;;;;;;5.47;100.00;101593.22;10166373;28;20052;-68
2021/11/17 09:56:30;;;;;;;31.30;15.30;;;;;;;5.50;100.00;101598.16;10168256;28;20483;-68
2021/11/17 10:02:01;;;;;;;32.80;14.43;;;;;;;5.49;100.00;101596.50;10154720;28;20046;-68
2021/11/17 10:17:56;;;;;;;29.00;13.48;;;;;;;5.60;100.00;101586.53;10150941;28;20459;-69
2021/11/17 10:23:05;;;;;;;31.33;13.55;;;;;;;5.60;100.00;101592.75;10153969;28;20469;-68
2021/11/17 10:28:02;;;;;;;31.35;13.95;;;;;;;5.55;100.00;101590.03;10139810;28;20050;-68
2021/11/17 10:33:05;;;;;;;34.10;13.93;;;;;;;5.57;100.00;101582.44;10152919;28;20539;-68
2021/11/17 10:38:04;;;;;;;36.03;14.77;;;;;;;5.58;100.00;101578.66;10152182;28;20550;-68
2021/11/17 10:43:07;;;;;;;34.50;14.55;;;;;;;5.56;100.00;101578.09;10160268;28;20085;-68
2021/11/17 10:48:15;;;;;;;36.25;15.25;;;;;;;5.61;100.00;101582.72;10162141;28;20124;-68
2021/11/17 10:53:24;;;;;;;43.75;16.10;;;;;;;5.60;100.00;101579.19;10168658;28;20900;-69
2021/11/17 10:58:25;;;;;;;35.45;14.90;;;;;;;5.62;100.00;101574.34;10160584;28;20042;-69
2021/11/17 11:03:24;;;;;;;37.58;15.77;;;;;;;5.66;100.00;101585.47;10163009;28;20046;-69
2021/11/17 11:08:31;;;;;;;41.70;16.70;;;;;;;5.62;100.00;101593.31;10162306;28;20464;-69
2021/11/17 11:13:52;;;;;;;35.58;14.90;;;;;;;5.66;100.00;101596.31;10161607;28;20081;-69
2021/11/17 11:19:14;;;;;;;43.75;17.40;;;;;;;5.67;100.00;101587.09;10128245;28;20050;-69
2021/11/17 11:24:30;;;;;;;42.63;17.17;;;;;;;5.67;100.00;101593.34;10144752;28;20077;-69
2021/11/17 11:30:22;;;;;;;46.72;19.05;;;;;;;5.72;100.00;101592.56;10152577;28;20105;-69
2021/11/17 11:35:20;;;;;;;54.65;19.77;;;;;;;5.69;100.00;101591.19;10142408;28;20093;-69
2021/11/17 11:40:16;;;;;;;53.08;20.10;;;;;;;5.84;100.00;101570.63;10158332;28;20047;-69
2021/11/17 11:45:25;;;;;;;55.47;22.58;;;;;;;5.87;100.00;101580.94;10162416;28;20465;-69
2021/11/17 11:50:30;;;;;;;50.38;20.70;;;;;;;5.99;100.00;101576.16;10157678;28;20042;-69
2021/11/17 11:55:50;;;;;;;57.58;22.77;;;;;;;6.05;100.00;101572.34;10173122;28;20077;-69
2021/11/17 12:01:26;;;;;;;60.90;24.48;;;;;;;6.02;100.00;101553.91;10164766;28;20116;-68
2021/11/17 12:06:40;;;;;;;61.22;24.75;;;;;;;6.09;100.00;101572.66;10150335;28;20054;-69
2021/11/17 12:11:46;;;;;;;61.00;25.20;;;;;;;6.17;100.00;101557.72;10146912;28;20051;-69
2021/11/17 12:16:44;;;;;;;61.85;25.02;;;;;;;6.19;100.00;101540.09;10135392;28;20086;-68
2021/11/17 12:21:41;;;;;;;62.95;26.05;;;;;;;6.37;100.00;101536.06;10167678;28;20092;-69
2021/11/17 12:26:45;;;;;;;66.53;26.83;;;;;;;6.46;100.00;101529.00;10144080;28;20607;-69
2021/11/17 12:32:04;;;;;;;59.00;25.85;;;;;;;6.51;100.00;101531.72;10138877;28;20096;-68
2021/11/17 12:37:08;;;;;;;62.53;27.63;;;;;;;6.76;100.00;101532.84;10140328;28;20082;-69
2021/11/17 12:42:06;;;;;;;61.55;26.95;;;;;;;6.93;100.00;101527.91;10151895;28;20088;-69
2021/11/17 12:47:37;;;;;;;52.97;24.88;;;;;;;6.99;100.00;101534.19;10160630;28;20042;-69
2021/11/17 12:52:37;;;;;;;56.95;26.17;;;;;;;6.98;100.00;101550.75;10154326;28;20041;-69
2021/11/17 12:57:51;;;;;;;56.10;26.02;;;;;;;7.15;100.00;101541.22;10163591;28;20088;-69
2021/11/17 13:02:58;;;;;;;49.00;23.42;;;;;;;7.23;100.00;101545.28;10153696;28;20105;-69
2021/11/17 13:07:58;;;;;;;42.60;21.80;;;;;;;7.24;100.00;101565.97;10156276;28;20070;-69
2021/11/17 13:13:13;;;;;;;45.50;21.98;;;;;;;7.14;100.00;101560.53;10165927;28;20046;-69
2021/11/17 13:18:42;;;;;;;43.50;21.95;;;;;;;7.17;100.00;101554.53;10151645;28;20069;-69
2021/11/17 13:23:46;;;;;;;43.15;18.80;;;;;;;7.22;100.00;101556.44;10138394;28;20101;-69
2021/11/17 13:28:49;;;;;;;46.35;20.17;;;;;;;7.29;100.00;101557.78;10148996;28;20039;-69
2021/11/17 13:34:11;;;;;;;40.40;20.37;;;;;;;7.34;100.00;101559.69;10161447;28;20042;-69
2021/11/17 13:39:08;;;;;;;48.00;20.92;;;;;;;7.42;100.00;101566.47;10159426;28;20786;-69
2021/11/17 13:44:10;;;;;;;50.15;21.27;;;;;;;7.52;100.00;101566.44;10153627;28;20042;-69
2021/11/17 13:49:07;;;;;;;44.72;21.52;;;;;;;7.50;100.00;101568.63;10155814;28;20195;-69
2021/11/17 13:54:03;;;;;;;45.80;21.90;;;;;;;7.54;100.00;101575.13;10166975;28;20149;-69
2021/11/17 13:59:00;;;;;;;44.85;21.70;;;;;;;7.60;100.00;101568.59;10168894;28;20110;-69
2021/11/17 14:03:56;;;;;;;49.20;22.00;;;;;;;7.59;100.00;101577.88;10164532;28;20904;-69
2021/11/17 14:08:53;;;;;;;47.83;20.23;;;;;;;7.65;100.00;101594.97;10160189;28;20039;-69
2021/11/17 14:13:49;;;;;;;53.55;23.13;;;;;;;7.63;100.00;101595.25;10157165;28;20089;-69
2021/11/17 14:18:47;;;;;;;49.35;22.05;;;;;;;7.70;100.00;101584.88;10137438;28;20039;-69
2021/11/17 14:23:44;;;;;;;54.80;22.85;;;;;;;7.66;100.00;101589.28;10146657;28;20456;-69
2021/11/17 14:28:55;;;;;;;50.28;21.70;;;;;;;7.69;100.00;101582.47;10139633;28;20621;-68
2021/11/17 14:33:57;;;;;;;54.10;21.85;;;;;;;7.72;100.00;101593.59;10143194;28;20101;-69
2021/11/17 14:38:55;;;;;;;49.97;21.08;;;;;;;7.69;100.00;101594.16;10155672;28;20069;-69
2021/11/17 14:43:51;;;;;;;50.70;21.17;;;;;;;7.72;100.00;101596.31;10157769;28;20088;-69
2021/11/17 14:48:48;;;;;;;49.72;21.10;;;;;;;7.72;100.00;101599.03;10152569;28;20142;-69
2021/11/17 14:53:47;;;;;;;45.50;19.83;;;;;;;7.79;100.00;101605.00;10157091;28;20046;-69
2021/11/17 14:58:44;;;;;;;45.05;20.92;;;;;;;7.81;100.00;101602.00;10159980;28;20038;-69
2021/11/17 15:03:42;;;;;;;53.63;20.95;;;;;;;7.84;100.00;101601.44;10170772;28;20456;-69
2021/11/17 15:08:39;;;;;;;50.80;19.42;;;;;;;7.77;100.00;101606.38;10142064;28;20093;-69
2021/11/17 15:13:35;;;;;;;48.65;20.50;;;;;;;7.79;100.00;101610.44;10182889;28;20130;-69
2021/11/17 15:18:32;;;;;;;57.90;22.58;;;;;;;7.79;100.00;101615.88;10160505;28;20070;-69
2021/11/17 15:23:32;;;;;;;54.03;22.15;;;;;;;7.76;100.00;101616.44;10160075;28;20121;-68
2021/11/17 15:28:38;;;;;;;52.30;21.08;;;;;;;7.66;100.00;101611.06;10156532;28;20062;-69
2021/11/17 15:33:36;;;;;;;42.65;18.80;;;;;;;7.69;100.00;101610.47;10161348;28;20042;-69
2021/11/17 15:38:36;;;;;;;49.85;21.38;;;;;;;7.70;100.00;101623.00;10162906;28;20133;-69
2021/11/17 15:43:35;;;;;;;47.72;19.77;;;;;;;7.71;100.00;101635.53;10162777;28;20445;-69
2021/11/17 15:48:35;;;;;;;43.03;15.57;;;;;;;7.71;100.00;101630.09;10168833;28;20523;-68
2021/11/17 15:53:32;;;;;;;44.13;17.45;;;;;;;7.74;100.00;101634.97;10182055;28;20460;-69
2021/11/17 15:58:29;;;;;;;40.42;16.95;;;;;;;7.73;100.00;101632.53;10178744;28;20042;-69
2021/11/17 16:03:26;;;;;;;37.90;13.15;;;;;;;7.70;100.00;101639.31;10181959;28;20075;-69
2021/11/17 16:08:23;;;;;;;39.60;16.02;;;;;;;7.67;100.00;101639.88;10162921;28;20449;-69
2021/11/17 16:13:21;;;;;;;46.25;17.85;;;;;;;7.61;100.00;101651.88;10164368;28;20046;-68
2021/11/17 16:18:18;;;;;;;41.92;17.98;;;;;;;7.58;100.00;101657.88;10158809;28;20042;-68
2021/11/17 16:28:33;;;;;;;44.05;17.85;;;;;;;7.50;100.00;101666.59;10161710;28;20053;-68
2021/11/17 16:33:30;;;;;;;45.42;18.15;;;;;;;7.48;100.00;101679.66;10158945;28;20483;-68
2021/11/17 16:38:26;;;;;;;49.10;17.77;;;;;;;7.45;100.00;101696.50;10164968;28;20599;-68
2021/11/17 16:43:24;;;;;;;44.88;16.30;;;;;;;7.41;100.00;101717.22;10151879;28;20108;-68
2021/11/17 16:48:23;;;;;;;49.92;17.67;;;;;;;7.42;100.00;101713.41;10158115;28;20503;-68
2021/11/17 16:53:20;;;;;;;38.88;16.20;;;;;;;7.46;100.00;101728.09;10166414;28;20052;-68
2021/11/17 16:58:20;;;;;;;32.47;13.40;;;;;;;7.46;100.00;101736.25;10168686;28;20636;-68
2021/11/17 17:03:19;;;;;;;39.13;14.60;;;;;;;7.51;100.00;101741.69;10166823;28;20104;-68
2021/11/17 17:08:16;;;;;;;39.50;15.10;;;;;;;7.55;100.00;101745.50;10148768;28;20175;-69
2021/11/17 17:13:13;;;;;;;32.05;11.88;;;;;;;7.53;100.00;101753.94;10166937;28;20470;-68
2021/11/17 17:18:15;;;;;;;34.15;11.25;;;;;;;7.55;100.00;101750.97;10155816;28;20046;-67
2021/11/17 17:23:13;;;;;;;30.40;11.20;;;;;;;7.53;100.00;101769.47;10155353;28;20073;-68
2021/11/17 17:28:13;;;;;;;30.02;9.98;;;;;;;7.47;100.00;101759.66;10155349;28;20041;-68
2021/11/17 17:33:09;;;;;;;26.67;9.40;;;;;;;7.47;100.00;101778.69;10148340;28;20495;-67
2021/11/17 17:38:06;;;;;;;26.38;9.40;;;;;;;7.48;100.00;101777.63;10157007;28;20041;-69
2021/11/17 17:43:03;;;;;;;30.02;9.48;;;;;;;7.48;100.00;101794.75;10131428;28;20458;-69
2021/11/17 17:48:00;;;;;;;26.42;8.77;;;;;;;7.53;100.00;101799.41;10137204;28;20050;-69
2021/11/17 17:52:59;;;;;;;27.77;10.23;;;;;;;7.54;100.00;101809.19;10172122;28;20441;-68
2021/11/17 17:57:56;;;;;;;21.17;6.47;;;;;;;7.51;100.00;101805.09;10163587;28;20084;-68
2021/11/17 18:02:52;;;;;;;19.10;3.90;;;;;;;7.50;100.00;101799.94;10158001;28;20149;-68
2021/11/17 18:07:51;;;;;;;9.57;2.50;;;;;;;7.40;100.00;101808.06;10151053;28;20049;-68
2021/11/17 18:12:49;;;;;;;18.33;3.90;;;;;;;7.40;100.00;101829.84;10147802;28;20070;-68
2021/11/17 18:17:46;;;;;;;11.35;1.95;;;;;;;7.28;100.00;101817.31;10144503;28;20046;-68
2021/11/17 18:22:43;;;;;;;14.68;2.35;;;;;;;7.14;100.00;101827.06;10158308;28;20138;-68
2021/11/17 18:27:40;;;;;;;11.27;1.77;;;;;;;7.03;100.00;101828.09;10154023;28;20081;-68
2021/11/17 18:32:38;;;;;;;12.90;2.30;;;;;;;6.99;100.00;101835.19;10150180;28;20046;-69
2021/11/17 18:37:34;;;;;;;13.15;2.65;;;;;;;6.97;100.00;101848.22;10156805;28;20077;-69
2021/11/17 18:42:33;;;;;;;16.38;3.08;;;;;;;6.92;100.00;101847.13;10162445;28;20108;-70
2021/11/17 18:47:30;;;;;;;12.50;3.17;;;;;;;6.83;100.00;101843.28;10162978;28;20472;-69
2021/11/17 18:52:27;;;;;;;17.50;4.50;;;;;;;6.83;100.00;101848.69;10166870;28;20045;-69
2021/11/17 18:57:24;;;;;;;16.92;3.08;;;;;;;6.80;100.00;101851.97;10170153;28;20152;-69
2021/11/17 19:02:29;;;;;;;15.52;3.00;;;;;;;6.84;100.00;101850.31;10174651;28;20129;-69
2021/11/17 19:07:26;;;;;;;18.92;2.60;;;;;;;6.91;100.00;101872.66;10154151;28;20053;-69
2021/11/17 19:12:22;;;;;;;16.83;3.10;;;;;;;6.95;100.00;101911.84;10159170;28;20090;-69
2021/11/17 19:17:19;;;;;;;14.55;2.22;;;;;;;6.91;100.00;101916.16;10145895;28;20101;-69
2021/11/17 19:22:19;;;;;;;15.25;2.40;;;;;;;6.89;100.00;101918.34;10149683;28;20042;-69
2021/11/17 19:27:16;;;;;;;14.27;2.70;;;;;;;6.78;100.00;101919.38;10151314;28;20085;-69
2021/11/17 19:32:14;;;;;;;11.90;1.80;;;;;;;6.76;100.00;101901.69;10154948;28;20516;-68
2021/11/17 19:37:11;;;;;;;12.73;2.15;;;;;;;6.70;100.00;101912.50;10167694;28;20058;-69
2021/11/17 19:42:21;;;;;;;9.45;1.88;;;;;;;6.67;100.00;101912.22;10147651;28;20535;-69
2021/11/17 19:47:18;;;;;;;9.43;1.77;;;;;;;6.67;100.00;101920.38;10137683;28;20039;-69
2021/11/17 19:52:19;;;;;;;11.32;2.03;;;;;;;6.65;100.00;101917.91;10150238;28;20498;-69
2021/11/17 19:57:20;;;;;;;7.95;2.13;;;;;;;6.68;100.00;101922.00;10166422;28;20081;-69
2021/11/17 20:02:21;;;;;;;15.70;2.38;;;;;;;6.77;100.00;101923.16;10180843;28;20077;-69
2021/11/17 20:07:19;;;;;;;13.40;2.25;;;;;;;6.81;100.00;101926.97;10163230;28;20047;-68
2021/11/17 20:12:17;;;;;;;10.65;2.05;;;;;;;6.83;100.00;101935.69;10158178;28;20046;-68
2021/11/17 20:17:14;;;;;;;10.57;2.22;;;;;;;6.87;100.00;101931.38;10157752;28;20082;-67
2021/11/17 20:22:11;;;;;;;15.48;2.83;;;;;;;6.86;100.00;101929.72;10174756;28;20058;-67
2021/11/17 20:27:08;;;;;;;16.08;2.97;;;;;;;6.79;100.00;101950.88;10154389;28;20120;-67
2021/11/17 20:32:05;;;;;;;14.73;2.58;;;;;;;6.71;100.00;101935.09;10167125;28;20034;-67
2021/11/17 20:37:04;;;;;;;16.52;2.65;;;;;;;6.70;100.00;101945.13;10162555;28;20049;-68
2021/11/17 20:42:01;;;;;;;15.73;3.03;;;;;;;6.70;100.00;101949.75;10151398;28;20460;-68
2021/11/17 20:46:57;;;;;;;16.85;3.17;;;;;;;6.62;100.00;101944.81;10137079;28;20494;-67
2021/11/17 20:51:54;;;;;;;10.25;1.75;;;;;;;6.63;100.00;101946.44;10128493;28;20046;-67
2021/11/17 20:56:52;;;;;;;13.65;2.13;;;;;;;6.58;100.00;101949.13;10127773;28;20053;-67
2021/11/17 21:01:49;;;;;;;14.40;2.13;;;;;;;6.56;100.00;101962.16;10129171;28;20148;-68
2021/11/17 21:06:47;;;;;;;13.63;2.08;;;;;;;6.59;100.00;101967.88;10125182;28;20043;-68
2021/11/17 21:11:45;;;;;;;14.25;1.90;;;;;;;6.57;100.00;101982.78;10150435;28;20416;-70
2021/11/17 21:16:41;;;;;;;12.50;1.67;;;;;;;6.48;100.00;101979.75;10146150;28;20046;-69
2021/11/17 21:21:42;;;;;;;14.63;2.45;;;;;;;6.44;100.00;101979.44;10156523;28;20142;-72
2021/11/17 21:26:41;;;;;;;15.15;3.08;;;;;;;6.34;100.00;101971.22;10131489;28;20073;-72
2021/11/17 21:31:38;;;;;;;11.50;2.28;;;;;;;6.35;100.00;101978.28;10144645;28;20046;-72
2021/11/17 21:36:36;;;;;;;13.10;2.17;;;;;;;6.24;100.00;101962.97;10146484;28;20070;-72
2021/11/17 21:41:33;;;;;;;24.67;4.78;;;;;;;6.22;100.00;101970.53;10153546;28;20047;-70
2021/11/17 21:46:31;;;;;;;18.75;4.05;;;;;;;6.21;100.00;101987.94;10157827;28;20508;-70
2021/11/17 21:51:28;;;;;;;20.42;2.20;;;;;;;6.14;100.00;101982.69;10152775;28;20049;-71
2021/11/17 21:56:24;;;;;;;11.48;1.92;;;;;;;6.09;100.00;101991.63;10151079;28;20046;-71
2021/11/17 22:01:23;;;;;;;14.00;2.30;;;;;;;6.13;100.00;101980.22;10161590;28;20480;-71
2021/11/17 22:06:20;;;;;;;13.82;1.80;;;;;;;6.17;100.00;101981.38;10177136;28;20046;-70
2021/11/17 22:11:25;;;;;;;11.18;1.92;;;;;;;6.21;100.00;101971.63;10166458;28;20050;-71
2021/11/17 22:16:22;;;;;;;12.82;2.20;;;;;;;6.22;100.00;101973.25;10153660;28;20149;-71
2021/11/17 22:21:19;;;;;;;12.35;2.15;;;;;;;6.24;100.00;101992.84;10150776;28;20084;-71
2021/11/17 22:26:18;;;;;;;10.02;1.92;;;;;;;6.25;100.00;102005.34;10149029;28;20046;-71
2021/11/17 22:31:17;;;;;;;10.38;1.80;;;;;;;6.34;100.00;102014.69;10147722;28;20078;-70
2021/11/17 22:36:14;;;;;;;12.25;1.67;;;;;;;6.31;100.00;102009.75;10128913;28;20065;-71
2021/11/17 22:41:11;;;;;;;10.27;1.70;;;;;;;6.22;100.00;101994.97;10155277;28;20058;-70
2021/11/17 22:46:10;;;;;;;13.07;2.20;;;;;;;6.28;100.00;102021.13;10165631;28;20528;-70
2021/11/17 22:51:10;;;;;;;8.32;1.02;;;;;;;6.42;100.00;102006.03;10154202;28;20041;-71
2021/11/17 22:56:09;;;;;;;11.98;2.08;;;;;;;6.41;100.00;102020.72;10167820;28;20042;-69
2021/11/17 23:01:11;;;;;;;10.23;1.58;;;;;;;6.46;100.00;102022.66;10161419;28;20045;-70
2021/11/17 23:06:08;;;;;;;13.00;2.08;;;;;;;6.42;100.00;102016.91;10161050;28;20046;-70
2021/11/17 23:11:06;;;;;;;13.60;1.80;;;;;;;6.46;100.00;102022.66;10148885;28;20072;-71
2021/11/17 23:16:02;;;;;;;12.27;2.25;;;;;;;6.39;100.00;102017.44;10153504;28;20112;-70
2021/11/17 23:21:02;;;;;;;16.33;2.35;;;;;;;6.25;100.00;102033.31;10151093;28;20567;-71
2021/11/17 23:26:04;;;;;;;14.88;2.38;;;;;;;6.38;100.00;102037.50;10142643;28;20072;-69
2021/11/17 23:31:02;;;;;;;12.25;2.35;;;;;;;6.45;100.00;102048.19;10163176;28;20073;-68
2021/11/17 23:35:59;;;;;;;10.15;2.22;;;;;;;6.47;100.00;102052.28;10155991;28;20408;-70
2021/11/17 23:40:56;;;;;;;11.43;1.67;;;;;;;6.47;100.00;102046.84;10164337;28;20073;-71
2021/11/17 23:45:54;;;;;;;14.40;2.08;;;;;;;6.42;100.00;102060.38;10158471;28;20046;-69
2021/11/17 23:50:57;;;;;;;17.20;1.90;;;;;;;6.32;100.00;102063.00;10167454;28;20077;-70
2021/11/17 23:55:55;;;;;;;11.77;2.08;;;;;;;6.20;100.00;102065.06;10171440;28;20058;-71
